Time;durP1;ratioP1;P1;durP2;ratioP2;P2;SDS_P1;SDS_P2;PMS_P1;PMS_P2;Temp;Humidity;BMP_temperature;BMP_pressure;BME280_temperature;BME280_humidity;BME280_pressure;Samples;Min_cycle;Max_cycle;Signal;HPM_P1;HPM_P2
2023/11/05 00:01:05;;;;;;;2.88;1.90;;;12.80;98.00;;;;;;5012132;28;20804;-30
2023/11/05 00:03:43;;;;;;;2.40;1.60;;;12.80;98.00;;;;;;4987532;28;20582;-33
2023/11/05 00:06:28;;;;;;;3.17;1.80;;;12.90;98.00;;;;;;5008751;28;20451;-30
2023/11/05 00:09:13;;;;;;;2.92;1.95;;;12.90;97.90;;;;;;5001746;28;20456;-32
2023/11/05 00:11:52;;;;;;;6.40;2.43;;;12.90;98.00;;;;;;5011644;28;20192;-34
2023/11/05 00:14:47;;;;;;;6.27;2.40;;;12.90;97.90;;;;;;5015522;28;20494;-31
2023/11/05 00:17:54;;;;;;;4.40;2.50;;;13.00;97.90;;;;;;5016806;28;20544;-28
2023/11/05 00:20:27;;;;;;;4.37;2.20;;;12.90;97.80;;;;;;5012367;28;20481;-32
2023/11/05 00:23:35;;;;;;;3.97;2.07;;;12.90;98.00;;;;;;5022962;28;20448;-32
2023/11/05 00:26:04;;;;;;;2.37;2.17;;;12.90;98.00;;;;;;5020714;28;20874;-30
2023/11/05 00:28:44;;;;;;;6.10;2.50;;;12.90;98.10;;;;;;5013084;28;20521;-29
2023/11/05 00:31:41;;;;;;;2.33;1.50;;;12.80;98.10;;;;;;5007341;28;20888;-32
2023/11/05 00:34:38;;;;;;;4.03;3.30;;;12.80;98.20;;;;;;5002233;28;20455;-32
2023/11/05 00:37:33;;;;;;;3.33;1.97;;;12.80;98.20;;;;;;4999193;28;20519;-30
2023/11/05 00:40:12;;;;;;;4.13;2.00;;;12.80;98.20;;;;;;5013390;28;20427;-32
2023/11/05 00:42:43;;;;;;;3.25;1.92;;;12.80;98.30;;;;;;5005625;28;20913;-30
2023/11/05 00:45:33;;;;;;;2.40;1.83;;;12.80;98.30;;;;;;5004152;28;20452;-32
2023/11/05 00:47:59;;;;;;;3.00;2.00;;;12.90;98.20;;;;;;5010420;28;20442;-33
2023/11/05 00:50:33;;;;;;;4.00;1.70;;;12.90;98.30;;;;;;4994083;28;20936;-35
2023/11/05 00:53:08;;;;;;;2.10;1.63;;;12.90;98.30;;;;;;5021787;28;20422;-30
2023/11/05 00:55:48;;;;;;;7.10;1.90;;;12.90;98.30;;;;;;5020954;28;20922;-30
2023/11/05 00:58:18;;;;;;;3.43;2.10;;;12.80;98.30;;;;;;5020266;28;20442;-32
2023/11/05 01:01:02;;;;;;;3.00;1.70;;;12.80;98.30;;;;;;5000971;28;20963;-31
2023/11/05 01:03:41;;;;;;;3.75;1.75;;;12.80;98.30;;;;;;5018903;28;20442;-32
2023/11/05 01:06:09;;;;;;;3.27;1.63;;;12.80;98.30;;;;;;5020108;28;20790;-33
2023/11/05 01:08:48;;;;;;;5.87;1.97;;;12.90;98.30;;;;;;5014161;28;20459;-30
2023/11/05 01:11:20;;;;;;;3.67;1.93;;;12.90;98.30;;;;;;5011297;28;20469;-32
2023/11/05 01:14:06;;;;;;;5.93;2.17;;;12.90;98.40;;;;;;4989393;28;20848;-32
2023/11/05 01:16:35;;;;;;;4.10;2.17;;;12.90;98.60;;;;;;5004893;28;20435;-31
2023/11/05 01:19:16;;;;;;;5.13;1.87;;;12.80;98.90;;;;;;5013252;28;20427;-33
2023/11/05 01:21:48;;;;;;;4.60;1.80;;;12.80;98.70;;;;;;5029222;28;21331;-33
2023/11/05 01:24:27;;;;;;;4.03;1.77;;;12.90;98.70;;;;;;5010976;28;20444;-29
2023/11/05 01:27:09;;;;;;;4.33;1.93;;;12.80;98.70;;;;;;5000150;28;20212;-32
2023/11/05 01:29:47;;;;;;;4.40;1.90;;;12.90;98.70;;;;;;5021850;28;20792;-35
2023/11/05 01:32:34;;;;;;;4.67;1.80;;;12.90;98.60;;;;;;5002222;28;20466;-32
2023/11/05 01:35:23;;;;;;;3.10;1.90;;;12.90;98.70;;;;;;4997811;28;20720;-33
2023/11/05 01:38:07;;;;;;;5.57;2.20;;;12.80;98.80;;;;;;5009824;28;20795;-32
2023/11/05 01:40:36;;;;;;;5.60;2.50;;;12.90;98.90;;;;;;5008834;28;20826;-31
2023/11/05 01:43:03;;;;;;;3.10;1.97;;;12.90;98.90;;;;;;4997125;28;20207;-31
2023/11/05 01:45:55;;;;;;;5.03;2.10;;;12.90;98.70;;;;;;5011862;28;20478;-31
2023/11/05 01:48:29;;;;;;;3.00;1.70;;;12.90;98.70;;;;;;4987023;28;20440;-32
2023/11/05 01:51:49;;;;;;;3.47;1.83;;;12.90;98.70;;;;;;5014897;28;20459;-31
2023/11/05 01:54:45;;;;;;;2.50;1.60;;;12.90;98.80;;;;;;5019765;28;20522;-32
2023/11/05 01:57:21;;;;;;;6.33;1.70;;;12.80;98.90;;;;;;5009693;28;20742;-31
2023/11/05 01:59:48;;;;;;;4.50;1.90;;;12.80;98.90;;;;;;4999516;28;20976;-32
2023/11/05 02:02:18;;;;;;;3.77;1.80;;;12.80;99.00;;;;;;5012759;28;20537;-31
2023/11/05 02:04:44;;;;;;;7.20;2.70;;;12.80;99.00;;;;;;5003052;28;20472;-33
2023/11/05 02:07:11;;;;;;;6.20;1.87;;;12.80;99.10;;;;;;5003018;28;20930;-32
2023/11/05 02:09:43;;;;;;;3.97;1.80;;;12.80;99.10;;;;;;5011330;28;20824;-33
2023/11/05 02:12:09;;;;;;;3.20;1.87;;;12.80;99.20;;;;;;4990841;28;20432;-31
2023/11/05 02:14:35;;;;;;;5.13;2.37;;;12.80;99.10;;;;;;5007087;28;20447;-34
2023/11/05 02:17:01;;;;;;;3.70;2.07;;;12.80;99.10;;;;;;5003195;28;20425;-31
2023/11/05 02:19:30;;;;;;;3.37;1.90;;;12.80;99.20;;;;;;5003238;28;20508;-32
2023/11/05 02:22:14;;;;;;;4.27;1.80;;;12.80;99.20;;;;;;5010881;28;20511;-32
2023/11/05 02:24:52;;;;;;;6.80;1.93;;;12.80;99.20;;;;;;5010755;28;20720;-29
2023/11/05 02:28:09;;;;;;;2.90;1.90;;;12.80;99.30;;;;;;4994441;28;20431;-33
2023/11/05 02:31:19;;;;;;;5.07;2.03;;;12.80;99.30;;;;;;4986369;28;20432;-31
2023/11/05 02:34:07;;;;;;;7.03;2.63;;;12.80;99.30;;;;;;5019582;28;20450;-31
2023/11/05 02:36:43;;;;;;;3.60;1.50;;;12.80;99.40;;;;;;5010907;28;20458;-34
2023/11/05 02:39:51;;;;;;;5.90;2.17;;;12.80;99.50;;;;;;5007881;28;20554;-31
2023/11/05 02:42:34;;;;;;;4.10;1.93;;;12.80;99.50;;;;;;5012910;28;20466;-31
2023/11/05 02:45:23;;;;;;;6.13;1.90;;;12.80;99.50;;;;;;5000211;28;20469;-31
2023/11/05 02:51:04;;;;;;;3.97;1.77;;;12.80;99.50;;;;;;5007847;28;20848;-35
2023/11/05 02:53:56;;;;;;;1.80;1.50;;;12.80;99.60;;;;;;5014071;28;20838;-32
2023/11/05 02:56:31;;;;;;;2.50;1.80;;;12.70;99.70;;;;;;4993933;28;21049;-33
2023/11/05 02:59:08;;;;;;;4.43;2.10;;;12.70;99.70;;;;;;5002011;28;20851;-31
2023/11/05 03:02:04;;;;;;;4.50;1.83;;;12.70;99.70;;;;;;5018860;28;20570;-30
2023/11/05 03:04:35;;;;;;;5.20;1.67;;;12.70;99.80;;;;;;5015782;28;20899;-30
2023/11/05 03:07:07;;;;;;;3.10;1.70;;;12.80;99.80;;;;;;5011949;28;20314;-32
2023/11/05 03:10:05;;;;;;;3.37;1.83;;;12.80;99.60;;;;;;5021520;28;20447;-32
2023/11/05 03:13:06;;;;;;;4.53;1.77;;;12.80;99.60;;;;;;5003279;28;20995;-33
2023/11/05 03:15:38;;;;;;;4.75;1.73;;;12.80;99.60;;;;;;5030214;28;20485;-31
2023/11/05 03:18:13;;;;;;;1.97;1.60;;;12.80;99.60;;;;;;5011031;28;20248;-36
2023/11/05 03:20:42;;;;;;;6.47;2.57;;;12.90;99.70;;;;;;5019477;28;20459;-32
2023/11/05 03:23:11;;;;;;;4.33;2.10;;;12.90;99.60;;;;;;5031521;28;20457;-31
2023/11/05 03:25:46;;;;;;;3.13;1.67;;;12.90;99.60;;;;;;5023481;28;20515;-31
2023/11/05 03:28:41;;;;;;;3.40;1.80;;;12.80;99.60;;;;;;5007536;28;20464;-31
2023/11/05 03:31:26;;;;;;;3.90;1.70;;;12.80;99.70;;;;;;5016681;28;20458;-34
2023/11/05 03:33:52;;;;;;;3.00;2.17;;;12.80;99.70;;;;;;5012998;28;20506;-32
2023/11/05 03:36:50;;;;;;;3.57;1.83;;;12.80;99.60;;;;;;5023665;28;20431;-33
2023/11/05 03:40:38;;;;;;;1.97;1.80;;;12.80;99.70;;;;;;5003351;28;20989;-32
2023/11/05 03:43:37;;;;;;;3.37;1.70;;;12.80;99.70;;;;;;4955204;28;20504;-31
2023/11/05 03:46:09;;;;;;;3.60;1.83;;;12.80;99.80;;;;;;5008352;28;20454;-32
2023/11/05 03:48:45;;;;;;;4.13;1.70;;;12.70;99.90;;;;;;5013431;28;20429;-29
2023/11/05 03:51:20;;;;;;;1.90;1.70;;;12.80;99.90;;;;;;5005823;28;21001;-30
2023/11/05 03:53:54;;;;;;;2.77;1.60;;;12.80;99.90;;;;;;5023292;28;20721;-31
2023/11/05 03:56:49;;;;;;;4.10;1.80;;;12.70;99.90;;;;;;5009969;28;20452;-32
2023/11/05 03:59:29;;;;;;;3.53;1.70;;;12.80;99.90;;;;;;5010010;28;20783;-32
2023/11/05 04:02:09;;;;;;;5.17;2.20;;;12.80;99.90;;;;;;5004714;28;20949;-32
2023/11/05 04:05:11;;;;;;;2.87;1.60;;;12.70;99.90;;;;;;5012138;28;20476;-33
2023/11/05 04:07:44;;;;;;;6.20;1.80;;;12.80;99.90;;;;;;5023140;28;20517;-32
2023/11/05 04:10:32;;;;;;;3.10;1.80;;;12.70;99.90;;;;;;5007426;28;20430;-33
2023/11/05 04:13:15;;;;;;;5.10;1.70;;;12.70;99.90;;;;;;5007952;28;20729;-32
2023/11/05 04:15:59;;;;;;;;;;;;;;;;;;;;;
2023/11/05 04:18:50;;;;;;;4.60;1.65;;;12.80;99.90;;;;;;5009965;28;20634;-33
2023/11/05 04:21:21;;;;;;;4.93;2.27;;;12.80;99.90;;;;;;5022773;28;20209;-31
2023/11/05 04:24:25;;;;;;;1.97;1.63;;;12.80;99.80;;;;;;5010325;28;20513;-31
2023/11/05 04:26:59;;;;;;;2.30;1.70;;;12.80;99.80;;;;;;5022867;28;20617;-29
2023/11/05 04:29:29;;;;;;;5.30;1.77;;;12.80;99.70;;;;;;5007870;28;21052;-31
2023/11/05 04:32:02;;;;;;;3.80;1.80;;;12.80;99.90;;;;;;4995606;28;20494;-32
2023/11/05 04:34:38;;;;;;;2.50;1.70;;;12.80;99.80;;;;;;5020914;28;20644;-36
2023/11/05 04:37:32;;;;;;;3.50;2.13;;;12.90;99.60;;;;;;5004831;28;20428;-34
2023/11/05 04:40:05;;;;;;;3.40;1.43;;;12.90;99.70;;;;;;5006428;28;20522;-32
2023/11/05 04:42:52;;;;;;;1.70;1.60;;;12.80;99.70;;;;;;5022457;28;20520;-29
2023/11/05 04:45:30;;;;;;;3.03;1.40;;;12.80;99.80;;;;;;5010558;28;20981;-32
2023/11/05 04:48:16;;;;;;;3.63;1.80;;;12.80;99.90;;;;;;4982043;28;20816;-31
2023/11/05 04:50:45;;;;;;;3.27;1.97;;;12.80;99.90;;;;;;5002336;28;20199;-31
2023/11/05 04:53:11;;;;;;;2.23;1.40;;;12.90;99.80;;;;;;5002529;28;20204;-30
2023/11/05 04:55:52;;;;;;;3.45;1.73;;;12.90;99.80;;;;;;5010441;28;20446;-36
2023/11/05 04:58:29;;;;;;;2.10;1.70;;;12.90;99.80;;;;;;5021765;28;20184;-32
2023/11/05 05:01:04;;;;;;;3.73;1.60;;;12.90;99.70;;;;;;5022045;28;20471;-34
2023/11/05 05:03:33;;;;;;;3.83;1.50;;;12.90;99.60;;;;;;5021695;28;20584;-35
2023/11/05 05:06:11;;;;;;;2.50;1.60;;;12.90;99.60;;;;;;5007488;28;20498;-33
2023/11/05 05:09:15;;;;;;;1.85;1.30;;;12.90;99.70;;;;;;5020091;28;20427;-31
2023/11/05 05:11:44;;;;;;;3.53;1.77;;;12.90;99.60;;;;;;5018910;28;20203;-32
2023/11/05 05:14:52;;;;;;;2.40;1.40;;;12.90;99.50;;;;;;5017781;28;20456;-31
2023/11/05 05:17:49;;;;;;;2.10;1.20;;;12.90;99.60;;;;;;4996045;28;20462;-31
2023/11/05 05:20:26;;;;;;;3.20;1.50;;;12.90;99.60;;;;;;4995357;28;20855;-30
2023/11/05 05:23:06;;;;;;;2.20;1.40;;;12.80;99.60;;;;;;5005921;28;20428;-33
2023/11/05 05:26:04;;;;;;;2.97;1.80;;;12.80;99.70;;;;;;5013466;28;20497;-31
2023/11/05 05:28:42;;;;;;;2.03;1.40;;;12.80;99.80;;;;;;5000528;28;20470;-30
2023/11/05 05:31:26;;;;;;;;;;;;;;;;;;;;;
2023/11/05 05:34:25;;;;;;;2.27;1.40;;;12.80;99.70;;;;;;4983514;28;20209;-32
2023/11/05 05:36:57;;;;;;;2.13;1.27;;;12.90;99.60;;;;;;5007232;28;20416;-32
2023/11/05 05:39:40;;;;;;;1.77;1.30;;;12.80;99.80;;;;;;5006644;28;20462;-34
2023/11/05 05:42:39;;;;;;;;;;;;;;;;;;;;;
2023/11/05 05:45:40;;;;;;;1.70;1.40;;;12.80;99.90;;;;;;4984764;28;20480;-31
2023/11/05 05:48:22;;;;;;;1.60;1.20;;;12.80;99.90;;;;;;4992266;28;20504;-28
2023/11/05 05:50:51;;;;;;;1.97;1.37;;;12.80;99.90;;;;;;5015323;28;20487;-34
2023/11/05 05:53:19;;;;;;;1.43;1.33;;;12.80;99.90;;;;;;5019439;28;20444;-34
2023/11/05 05:55:49;;;;;;;2.55;1.67;;;12.80;99.80;;;;;;5012419;28;20815;-29
2023/11/05 05:58:27;;;;;;;2.03;1.30;;;12.80;99.80;;;;;;5017426;28;20190;-36
2023/11/05 06:01:33;;;;;;;1.60;1.50;;;12.90;99.70;;;;;;5015052;28;20442;-32
2023/11/05 06:04:20;;;;;;;1.47;1.10;;;12.90;99.60;;;;;;4979755;28;20454;-34
2023/11/05 06:07:34;;;;;;;2.13;1.30;;;12.90;99.50;;;;;;5003078;28;20460;-32
2023/11/05 06:13:30;;;;;;;2.20;1.37;;;12.80;99.90;;;;;;4996912;28;20451;-32
2023/11/05 06:16:02;;;;;;;2.20;1.70;;;12.80;99.90;;;;;;5017414;28;20467;-35
2023/11/05 06:18:35;;;;;;;1.30;1.20;;;12.80;99.90;;;;;;5130709;22;20845;31
2023/11/05 06:21:21;;;;;;;3.03;1.33;;;12.80;99.90;;;;;;5046000;28;21026;-75
2023/11/05 06:24:16;;;;;;;1.90;1.02;;;12.80;99.90;;;;;;5015523;28;20445;-75
2023/11/05 06:26:56;;;;;;;1.50;1.40;;;12.80;99.90;;;;;;5033111;28;20258;-75
2023/11/05 06:29:37;;;;;;;1.70;1.47;;;12.80;99.90;;;;;;5020626;28;20646;-74
2023/11/05 06:32:04;;;;;;;2.30;1.40;;;12.80;99.90;;;;;;5030369;28;20960;-74
2023/11/05 06:34:36;;;;;;;1.23;1.13;;;12.90;99.90;;;;;;5019200;28;20368;-75
2023/11/05 06:37:09;;;;;;;1.63;1.27;;;12.90;99.90;;;;;;5020107;28;20239;-76
2023/11/05 06:40:11;;;;;;;1.10;1.07;;;12.90;99.90;;;;;;5028856;28;20449;-75
2023/11/05 06:42:55;;;;;;;1.53;1.30;;;12.90;99.70;;;;;;5031735;28;20489;-75
2023/11/05 06:45:29;;;;;;;1.20;1.07;;;12.90;99.60;;;;;;5007826;28;21314;-75
2023/11/05 06:48:15;;;;;;;1.55;1.45;;;12.90;99.60;;;;;;5017644;28;20446;-75
2023/11/05 06:50:51;;;;;;;1.33;1.20;;;12.90;99.50;;;;;;5023874;28;20194;-76
2023/11/05 06:53:34;;;;;;;1.80;1.37;;;13.00;99.50;;;;;;5031014;28;20448;-74
2023/11/05 06:56:12;;;;;;;1.93;1.40;;;12.90;99.50;;;;;;5010348;28;20433;-75
2023/11/05 06:58:44;;;;;;;1.17;1.17;;;12.90;99.50;;;;;;5023350;28;20455;-73
2023/11/05 07:01:32;;;;;;;1.60;1.10;;;12.90;99.70;;;;;;5014588;28;20464;-74
2023/11/05 07:04:39;;;;;;;1.30;1.20;;;12.90;99.90;;;;;;5043531;28;20456;-73
2023/11/05 07:07:36;;;;;;;1.50;1.40;;;12.90;99.90;;;;;;5023767;28;20938;-72
2023/11/05 07:10:06;;;;;;;1.25;1.08;;;12.90;99.70;;;;;;5018208;28;20209;-72
2023/11/05 07:12:55;;;;;;;2.47;1.50;;;12.90;99.70;;;;;;5016803;28;20209;-72
2023/11/05 07:15:24;;;;;;;1.50;1.40;;;13.00;99.60;;;;;;5021677;28;20431;-72
2023/11/05 07:17:51;;;;;;;2.15;1.13;;;13.00;99.50;;;;;;4998899;28;20423;-72
2023/11/05 07:20:29;;;;;;;1.87;1.20;;;12.90;99.60;;;;;;5002552;28;20257;-71
2023/11/05 07:24:04;;;;;;;1.43;1.20;;;13.00;99.50;;;;;;5016194;28;20454;-72
2023/11/05 07:27:18;;;;;;;1.50;1.40;;;13.00;99.80;;;;;;4945652;28;20485;-72
2023/11/05 07:29:53;;;;;;;1.47;1.33;;;13.00;99.40;;;;;;4941356;28;20214;-72
2023/11/05 07:32:32;;;;;;;1.33;1.20;;;13.00;99.40;;;;;;4908569;29;20498;-72
2023/11/05 07:35:05;;;;;;;1.00;1.00;;;12.90;99.40;;;;;;4916157;28;20435;-72
2023/11/05 07:37:47;;;;;;;1.77;1.50;;;12.90;99.50;;;;;;4928064;29;20453;-71
2023/11/05 07:40:41;;;;;;;1.23;1.23;;;12.90;99.80;;;;;;4918312;29;20755;-72
2023/11/05 07:43:29;;;;;;;2.03;1.30;;;12.90;99.90;;;;;;4910184;28;20481;-72
2023/11/05 07:46:13;;;;;;;1.30;1.20;;;12.90;99.90;;;;;;4920724;28;20480;-72
2023/11/05 07:48:42;;;;;;;1.93;1.30;;;12.90;99.80;;;;;;4936582;28;20771;-72
2023/11/05 07:51:45;;;;;;;1.25;1.15;;;13.00;99.80;;;;;;4914336;29;20444;-72
2023/11/05 07:55:13;;;;;;;1.27;1.17;;;13.00;99.70;;;;;;4904958;28;20210;-72
2023/11/05 07:58:04;;;;;;;1.10;1.10;;;13.00;99.50;;;;;;4927910;28;20199;-71
2023/11/05 08:00:51;;;;;;;1.30;1.20;;;13.10;99.50;;;;;;4934479;28;20195;-72
2023/11/05 08:06:50;;;;;;;1.60;1.50;;;13.10;99.40;;;;;;5021110;28;20553;-72
2023/11/05 08:09:25;;;;;;;1.17;1.07;;;13.00;99.60;;;;;;5014649;28;20557;-72
2023/11/05 08:12:05;;;;;;;1.43;1.33;;;13.00;99.60;;;;;;5039091;28;20430;-71
2023/11/05 08:14:31;;;;;;;1.60;1.50;;;12.90;99.60;;;;;;5032797;28;20872;-72
2023/11/05 08:17:12;;;;;;;1.30;1.20;;;13.00;99.70;;;;;;5018153;28;20454;-72
2023/11/05 08:19:50;;;;;;;1.50;1.37;;;12.90;99.70;;;;;;5020920;28;20470;-71
2023/11/05 08:22:27;;;;;;;1.50;1.40;;;12.90;99.70;;;;;;5027232;28;20488;-72
2023/11/05 08:25:06;;;;;;;2.37;1.90;;;12.90;99.80;;;;;;5033311;28;20495;-72
2023/11/05 08:27:46;;;;;;;1.30;1.20;;;12.90;99.90;;;;;;5024020;28;20455;-72
2023/11/05 08:30:32;;;;;;;1.40;1.30;;;12.90;99.90;;;;;;5019394;28;21199;-72
2023/11/05 08:33:39;;;;;;;1.10;1.10;;;12.90;99.90;;;;;;5024306;28;20468;-72
2023/11/05 08:36:18;;;;;;;2.23;1.57;;;12.90;99.90;;;;;;5001781;28;20872;-72
2023/11/05 08:39:11;;;;;;;1.90;1.27;;;12.90;99.90;;;;;;5037529;28;20422;-72
2023/11/05 08:42:02;;;;;;;1.30;1.10;;;12.90;99.90;;;;;;5011980;28;20701;-71
2023/11/05 08:44:44;;;;;;;1.60;1.50;;;12.90;99.90;;;;;;5011354;28;20936;-72
2023/11/05 08:47:13;;;;;;;1.40;1.30;;;12.90;99.90;;;;;;5007951;28;20447;-72
2023/11/05 08:50:01;;;;;;;1.27;1.17;;;12.90;99.90;;;;;;5019167;28;20426;-72
2023/11/05 08:52:47;;;;;;;1.40;1.30;;;13.00;99.90;;;;;;5048861;28;20444;-72
2023/11/05 08:55:19;;;;;;;1.17;1.07;;;12.90;99.90;;;;;;5019299;28;20431;-72
2023/11/05 08:58:02;;;;;;;1.10;1.10;;;12.90;99.90;;;;;;5020368;28;20419;-72
2023/11/05 09:00:46;;;;;;;1.50;1.40;;;12.90;99.90;;;;;;5022523;28;20427;-72
2023/11/05 09:03:41;;;;;;;1.63;1.50;;;12.90;99.90;;;;;;5022944;28;20508;-72
2023/11/05 09:06:11;;;;;;;1.33;1.13;;;13.00;99.90;;;;;;5025328;28;20655;-72
2023/11/05 09:08:58;;;;;;;1.27;1.17;;;13.00;99.90;;;;;;5021667;28;20931;-71
2023/11/05 09:12:01;;;;;;;2.93;1.40;;;12.90;99.90;;;;;;5024109;28;20447;-71
2023/11/05 09:14:59;;;;;;;1.80;1.40;;;12.90;99.90;;;;;;5027221;28;20409;-72
2023/11/05 09:17:41;;;;;;;1.27;1.20;;;12.90;99.90;;;;;;5022354;28;20446;-72
2023/11/05 09:20:25;;;;;;;1.40;1.30;;;12.90;99.90;;;;;;5027698;28;21239;-72
2023/11/05 09:23:20;;;;;;;3.37;1.90;;;13.00;99.90;;;;;;4985937;28;20284;-71
2023/11/05 09:26:06;;;;;;;1.50;1.40;;;13.00;99.90;;;;;;5019789;28;20466;-71
2023/11/05 09:28:41;;;;;;;2.07;1.30;;;13.00;99.90;;;;;;5019826;28;20419;-71
2023/11/05 09:31:31;;;;;;;1.10;1.10;;;13.00;99.90;;;;;;5021388;28;20444;-70
2023/11/05 09:34:09;;;;;;;1.50;1.40;;;13.00;99.90;;;;;;5037060;28;20799;-70
2023/11/05 09:36:38;;;;;;;1.80;1.40;;;13.00;99.90;;;;;;5003017;28;20438;-71
2023/11/05 09:39:07;;;;;;;2.83;1.30;;;12.90;99.90;;;;;;5019757;28;20467;-71
2023/11/05 09:41:54;;;;;;;1.53;1.43;;;13.00;99.90;;;;;;5019822;28;20963;-71
2023/11/05 09:44:26;;;;;;;1.70;1.60;;;13.00;99.90;;;;;;5002884;28;20439;-71
2023/11/05 09:47:10;;;;;;;4.00;1.50;;;13.00;99.90;;;;;;5021294;28;20213;-71
2023/11/05 09:50:09;;;;;;;1.70;1.30;;;13.10;99.90;;;;;;5004129;28;20738;-71
2023/11/05 09:53:14;;;;;;;1.67;1.30;;;13.10;99.90;;;;;;5008155;28;21061;-71
2023/11/05 09:56:18;;;;;;;1.30;1.20;;;13.10;99.90;;;;;;5032661;28;20989;-72
2023/11/05 09:59:13;;;;;;;3.17;1.58;;;13.10;99.90;;;;;;5021785;28;20451;-71
2023/11/05 10:02:06;;;;;;;1.35;1.25;;;13.10;99.90;;;;;;5021821;28;20260;-71
2023/11/05 10:04:49;;;;;;;3.80;1.53;;;13.10;99.90;;;;;;5020187;28;20824;-71
2023/11/05 10:07:23;;;;;;;5.50;2.03;;;13.20;99.90;;;;;;5020499;28;20429;-71
2023/11/05 10:10:16;;;;;;;4.03;1.40;;;13.20;99.90;;;;;;5004161;28;20497;-71
2023/11/05 10:12:49;;;;;;;2.80;1.93;;;13.10;99.90;;;;;;5003698;28;20454;-71
2023/11/05 10:15:38;;;;;;;2.10;1.93;;;13.20;99.90;;;;;;5019691;28;21283;-71
2023/11/05 10:21:11;;;;;;;1.60;1.50;;;13.10;99.90;;;;;;4999992;28;20740;-71
2023/11/05 10:24:13;;;;;;;4.03;1.60;;;13.10;99.90;;;;;;5002453;28;20808;-70
2023/11/05 10:27:41;;;;;;;2.25;1.40;;;13.10;99.90;;;;;;5010782;28;20436;-71
2023/11/05 10:30:38;;;;;;;;;;;;;;;;;;;;;
2023/11/05 10:33:22;;;;;;;2.70;1.60;;;13.10;99.90;;;;;;5035321;28;20455;-71
2023/11/05 10:36:25;;;;;;;1.60;1.50;;;13.10;99.90;;;;;;5034265;28;20418;-71
2023/11/05 10:39:10;;;;;;;2.47;1.58;;;13.10;99.90;;;;;;5002910;28;20467;-71
2023/11/05 10:42:12;;;;;;;3.00;1.63;;;13.20;99.90;;;;;;5035409;28;20188;-71
2023/11/05 10:45:06;;;;;;;2.75;1.90;;;13.20;99.90;;;;;;5002974;28;20978;-71
2023/11/05 10:48:04;;;;;;;3.47;2.07;;;13.20;99.90;;;;;;5019104;28;20489;-71
2023/11/05 10:50:42;;;;;;;2.07;1.87;;;13.20;99.90;;;;;;5004435;28;20957;-71
2023/11/05 10:53:09;;;;;;;2.47;1.97;;;13.20;99.90;;;;;;5003004;28;20570;-71
2023/11/05 10:55:52;;;;;;;2.50;1.70;;;13.20;99.90;;;;;;5033819;28;21046;-72
2023/11/05 10:58:39;;;;;;;3.30;1.93;;;13.20;99.90;;;;;;5019789;28;21051;-71
2023/11/05 11:01:17;;;;;;;2.70;1.70;;;13.20;99.90;;;;;;5019114;28;20471;-71
2023/11/05 11:03:55;;;;;;;1.70;1.60;;;13.20;99.90;;;;;;5002971;28;21221;-71
2023/11/05 11:06:50;;;;;;;1.70;1.60;;;13.20;99.90;;;;;;5020209;28;20900;-71
2023/11/05 11:09:52;;;;;;;1.60;1.50;;;13.20;99.90;;;;;;5020875;28;20488;-75
2023/11/05 11:16:08;;;;;;;1.80;1.70;;;13.20;99.90;;;;;;5007377;28;20437;-71
2023/11/05 11:18:43;;;;;;;2.53;1.80;;;13.20;99.90;;;;;;5019647;28;20458;-75
2023/11/05 11:21:19;;;;;;;1.83;1.60;;;13.10;99.90;;;;;;5018406;28;20433;-72
2023/11/05 11:23:53;;;;;;;2.00;1.80;;;13.10;99.90;;;;;;5035690;28;20470;-72
2023/11/05 11:26:27;;;;;;;1.90;1.80;;;13.10;99.90;;;;;;5018987;28;20471;-72
2023/11/05 11:29:15;;;;;;;;;;;;;;;;;;;;;
2023/11/05 11:31:53;;;;;;;1.90;1.70;;;13.20;99.90;;;;;;5029660;28;20884;-74
2023/11/05 11:34:24;;;;;;;1.95;1.77;;;13.20;99.90;;;;;;5029080;28;20430;-73
2023/11/05 11:37:09;;;;;;;3.27;1.70;;;13.20;99.90;;;;;;5017183;28;20200;-75
2023/11/05 11:39:39;;;;;;;1.70;1.60;;;13.20;99.90;;;;;;5041399;28;20484;-75
2023/11/05 11:42:14;;;;;;;2.63;1.90;;;13.20;99.90;;;;;;5004092;28;20458;-74
2023/11/05 11:45:21;;;;;;;3.17;1.83;;;13.20;99.90;;;;;;5037393;28;20437;-74
2023/11/05 11:48:46;;;;;;;2.60;2.00;;;13.20;99.90;;;;;;5032671;28;20552;-76
2023/11/05 11:51:50;;;;;;;2.20;2.00;;;13.20;99.90;;;;;;5031925;28;20805;-73
2023/11/05 11:54:31;;;;;;;2.33;2.10;;;13.20;99.90;;;;;;5019465;28;20596;-74
2023/11/05 11:57:06;;;;;;;2.33;2.10;;;13.20;99.90;;;;;;5037973;28;20514;-73
2023/11/05 11:59:48;;;;;;;3.23;1.80;;;13.20;99.90;;;;;;5028261;28;20240;-72
2023/11/05 12:02:42;;;;;;;2.40;2.20;;;13.20;99.90;;;;;;5006190;28;21262;-73
2023/11/05 12:05:24;;;;;;;4.93;2.25;;;13.20;99.90;;;;;;5031638;28;20478;-73
2023/11/05 12:08:39;;;;;;;2.50;1.98;;;13.30;99.90;;;;;;5033671;28;20533;-72
2023/11/05 12:15:23;;;;;;;1.80;1.70;;;13.40;99.90;;;;;;5005176;28;20481;-75
2023/11/05 12:17:59;;;;;;;2.33;2.13;;;13.30;99.90;;;;;;5033201;28;20418;-73
2023/11/05 12:20:39;;;;;;;4.50;2.13;;;13.30;99.90;;;;;;5052856;28;20478;-75
2023/11/05 12:23:43;;;;;;;4.00;2.07;;;13.30;99.90;;;;;;5014158;28;20455;-77
2023/11/05 12:26:40;;;;;;;2.87;2.50;;;13.30;99.90;;;;;;5041272;28;20459;-72
2023/11/05 12:29:31;;;;;;;2.53;2.10;;;13.30;99.90;;;;;;5011049;28;20531;-72
2023/11/05 12:32:09;;;;;;;3.53;2.63;;;13.30;99.90;;;;;;5041772;28;20434;-72
2023/11/05 12:34:53;;;;;;;3.07;2.50;;;13.30;99.90;;;;;;5043552;28;20427;-71
2023/11/05 12:37:46;;;;;;;2.33;2.13;;;13.30;99.90;;;;;;5040895;28;20827;-72
2023/11/05 12:40:53;;;;;;;2.50;2.30;;;13.30;99.90;;;;;;5019310;28;20435;-72
2023/11/05 12:44:24;;;;;;;2.95;2.10;;;13.20;99.90;;;;;;5002636;28;20474;-72
2023/11/05 12:47:40;;;;;;;5.13;2.83;;;13.30;99.90;;;;;;5017825;28;20207;-72
2023/11/05 12:50:30;;;;;;;3.03;2.72;;;13.30;99.90;;;;;;5041909;28;20414;-72
2023/11/05 12:53:17;;;;;;;4.80;3.00;;;13.30;99.90;;;;;;5026733;28;20203;-72
2023/11/05 12:56:10;;;;;;;3.40;3.07;;;13.30;99.90;;;;;;5035829;28;20452;-72
2023/11/05 12:59:28;;;;;;;3.80;2.90;;;13.30;99.90;;;;;;5041177;28;20829;-72
2023/11/05 13:02:21;;;;;;;6.87;2.83;;;13.30;99.90;;;;;;5040732;28;20441;-72
2023/11/05 13:04:49;;;;;;;5.20;2.97;;;13.30;99.90;;;;;;5024100;28;21005;-71
2023/11/05 13:07:24;;;;;;;4.80;3.07;;;13.30;99.90;;;;;;5039961;28;20433;-72
2023/11/05 13:09:57;;;;;;;3.53;3.23;;;13.30;99.90;;;;;;5040206;28;20453;-72
2023/11/05 13:13:05;;;;;;;5.37;3.80;;;13.30;99.90;;;;;;5041409;28;20442;-73
2023/11/05 13:15:46;;;;;;;4.80;3.03;;;13.30;99.90;;;;;;5039493;28;20948;-72
2023/11/05 13:18:39;;;;;;;5.87;3.90;;;13.30;99.90;;;;;;5041154;28;20654;-72
2023/11/05 13:21:18;;;;;;;8.93;4.00;;;13.30;99.90;;;;;;5024356;28;20427;-72
2023/11/05 13:24:18;;;;;;;4.83;4.13;;;13.40;99.90;;;;;;5026302;28;20647;-71
2023/11/05 13:26:49;;;;;;;6.47;4.60;;;13.30;99.90;;;;;;5023184;28;20469;-71
2023/11/05 13:29:38;;;;;;;5.60;3.50;;;13.30;99.90;;;;;;5040211;28;20454;-72
2023/11/05 13:32:29;;;;;;;5.33;3.40;;;13.30;99.90;;;;;;5041067;28;20541;-72
2023/11/05 13:35:45;;;;;;;6.20;3.70;;;13.30;99.90;;;;;;5034783;28;20442;-72
2023/11/05 13:38:49;;;;;;;6.33;4.37;;;13.30;99.90;;;;;;5025160;28;20746;-72
2023/11/05 13:41:30;;;;;;;5.70;3.40;;;13.30;99.90;;;;;;5041021;28;20794;-72
2023/11/05 13:45:04;;;;;;;4.60;3.93;;;13.30;99.90;;;;;;5040079;28;20459;-72
2023/11/05 13:47:42;;;;;;;6.43;4.30;;;13.30;99.90;;;;;;5038788;28;20872;-72
2023/11/05 13:51:15;;;;;;;5.43;3.85;;;13.30;99.90;;;;;;5040181;28;20446;-72
2023/11/05 14:01:05;;;;;;;5.13;3.60;;;13.30;99.90;;;;;;4986277;28;21004;-72
2023/11/05 14:03:53;;;;;;;5.40;3.90;;;13.30;99.90;;;;;;5000626;28;20846;-72
2023/11/05 14:06:43;;;;;;;5.60;3.87;;;13.30;99.90;;;;;;4983437;28;20486;-71
2023/11/05 14:09:24;;;;;;;4.87;4.37;;;13.30;99.90;;;;;;5001457;28;20908;-72
2023/11/05 14:12:19;;;;;;;4.60;3.90;;;13.40;99.90;;;;;;4999399;28;20744;-73
2023/11/05 14:14:50;;;;;;;5.95;4.03;;;13.40;99.90;;;;;;5017180;28;20431;-72
2023/11/05 14:17:26;;;;;;;4.10;3.70;;;13.40;99.90;;;;;;5001019;28;20305;-72
2023/11/05 14:20:07;;;;;;;4.83;4.03;;;13.40;99.90;;;;;;5017491;28;20490;-72
2023/11/05 14:22:47;;;;;;;4.40;3.67;;;13.40;99.90;;;;;;5000465;28;20446;-72
2023/11/05 14:25:42;;;;;;;5.90;4.50;;;13.40;99.90;;;;;;5001814;28;21194;-72
2023/11/05 14:31:26;;;;;;;6.67;3.87;;;13.40;99.90;;;;;;5219826;22;20861;-37
2023/11/05 14:34:26;;;;;;;5.83;3.90;;;13.40;99.90;;;;;;5006958;28;21185;-40
2023/11/05 14:37:26;;;;;;;4.80;3.40;;;13.30;99.90;;;;;;4988770;28;20427;-39
2023/11/05 14:40:37;;;;;;;4.60;3.60;;;13.30;99.90;;;;;;4997493;28;20983;-39
2023/11/05 14:43:16;;;;;;;6.50;4.27;;;13.30;99.90;;;;;;5005365;28;20441;-39
2023/11/05 14:46:01;;;;;;;3.92;3.30;;;13.30;99.90;;;;;;5005868;28;20475;-41
2023/11/05 14:48:41;;;;;;;4.27;3.50;;;13.30;99.90;;;;;;4987373;28;20193;-40
2023/11/05 14:51:37;;;;;;;4.23;3.63;;;13.40;99.90;;;;;;4992565;28;20812;-39
2023/11/05 14:54:30;;;;;;;3.63;3.33;;;13.40;99.90;;;;;;4991643;28;20471;-41
2023/11/05 14:57:35;;;;;;;4.07;3.67;;;13.40;99.90;;;;;;5015061;28;20470;-41